sensor_id;sensor_type;location;lat;lon;timestamp;P1;durP1;ratioP1;P2;durP2;ratioP2
60169;SDS011;46042;49.444;6.862;2023-04-24T00:01:10;1.35;;;0.90;;
60169;SDS011;46042;49.444;6.862;2023-04-24T00:03:36;2.35;;;0.95;;
60169;SDS011;46042;49.444;6.862;2023-04-24T00:06:05;1.40;;;0.70;;
60169;SDS011;46042;49.444;6.862;2023-04-24T00:08:37;2.45;;;0.80;;
60169;SDS011;46042;49.444;6.862;2023-04-24T00:11:04;2.40;;;0.85;;
60169;SDS011;46042;49.444;6.862;2023-04-24T00:13:31;0.88;;;0.88;;
60169;SDS011;46042;49.444;6.862;2023-04-24T00:15:58;1.05;;;0.80;;
60169;SDS011;46042;49.444;6.862;2023-04-24T00:18:24;1.00;;;0.90;;
60169;SDS011;46042;49.444;6.862;2023-04-24T00:20:52;2.70;;;0.85;;
60169;SDS011;46042;49.444;6.862;2023-04-24T00:23:18;6.45;;;1.00;;
60169;SDS011;46042;49.444;6.862;2023-04-24T00:25:45;2.60;;;0.98;;
60169;SDS011;46042;49.444;6.862;2023-04-24T00:28:12;1.00;;;1.00;;
60169;SDS011;46042;49.444;6.862;2023-04-24T00:30:38;1.05;;;0.98;;
60169;SDS011;46042;49.444;6.862;2023-04-24T00:33:06;2.47;;;1.25;;
60169;SDS011;46042;49.444;6.862;2023-04-24T00:35:32;1.45;;;0.90;;
60169;SDS011;46042;49.444;6.862;2023-04-24T00:37:59;2.55;;;1.25;;
60169;SDS011;46042;49.444;6.862;2023-04-24T00:40:26;0.70;;;0.70;;
60169;SDS011;46042;49.444;6.862;2023-04-24T00:42:53;2.60;;;1.10;;
60169;SDS011;46042;49.444;6.862;2023-04-24T00:45:20;1.88;;;1.10;;
60169;SDS011;46042;49.444;6.862;2023-04-24T00:47:46;1.15;;;1.08;;
60169;SDS011;46042;49.444;6.862;2023-04-24T00:50:15;5.78;;;1.10;;
60169;SDS011;46042;49.444;6.862;2023-04-24T00:52:42;1.77;;;1.10;;
60169;SDS011;46042;49.444;6.862;2023-04-24T00:55:09;2.05;;;1.30;;
60169;SDS011;46042;49.444;6.862;2023-04-24T00:57:37;3.35;;;1.20;;
60169;SDS011;46042;49.444;6.862;2023-04-24T01:00:05;2.22;;;1.40;;
60169;SDS011;46042;49.444;6.862;2023-04-24T01:02:34;1.20;;;1.10;;
60169;SDS011;46042;49.444;6.862;2023-04-24T01:05:01;1.13;;;1.02;;
60169;SDS011;46042;49.444;6.862;2023-04-24T01:07:29;1.45;;;1.35;;
60169;SDS011;46042;49.444;6.862;2023-04-24T01:09:57;3.25;;;1.25;;
60169;SDS011;46042;49.444;6.862;2023-04-24T01:12:24;1.75;;;1.40;;
60169;SDS011;46042;49.444;6.862;2023-04-24T01:14:51;1.40;;;1.30;;
60169;SDS011;46042;49.444;6.862;2023-04-24T01:17:17;1.67;;;1.58;;
60169;SDS011;46042;49.444;6.862;2023-04-24T01:19:44;1.40;;;1.30;;
60169;SDS011;46042;49.444;6.862;2023-04-24T01:22:12;3.10;;;1.90;;
60169;SDS011;46042;49.444;6.862;2023-04-24T01:24:43;2.63;;;1.80;;
60169;SDS011;46042;49.444;6.862;2023-04-24T01:27:10;2.15;;;1.90;;
60169;SDS011;46042;49.444;6.862;2023-04-24T01:29:37;4.78;;;1.70;;
60169;SDS011;46042;49.444;6.862;2023-04-24T01:32:04;2.33;;;2.00;;
60169;SDS011;46042;49.444;6.862;2023-04-24T01:34:31;2.03;;;1.67;;
60169;SDS011;46042;49.444;6.862;2023-04-24T01:36:59;2.78;;;1.60;;
60169;SDS011;46042;49.444;6.862;2023-04-24T01:39:26;2.05;;;1.80;;
60169;SDS011;46042;49.444;6.862;2023-04-24T01:41:56;2.47;;;2.00;;
60169;SDS011;46042;49.444;6.862;2023-04-24T01:44:23;3.00;;;2.20;;
60169;SDS011;46042;49.444;6.862;2023-04-24T01:46:50;3.88;;;2.30;;
60169;SDS011;46042;49.444;6.862;2023-04-24T01:49:17;4.20;;;1.95;;
60169;SDS011;46042;49.444;6.862;2023-04-24T01:51:44;5.22;;;2.05;;
60169;SDS011;46042;49.444;6.862;2023-04-24T01:54:11;3.50;;;2.17;;
60169;SDS011;46042;49.444;6.862;2023-04-24T01:56:42;2.15;;;1.83;;
60169;SDS011;46042;49.444;6.862;2023-04-24T01:59:12;2.17;;;1.92;;
60169;SDS011;46042;49.444;6.862;2023-04-24T02:01:39;3.05;;;2.10;;
60169;SDS011;46042;49.444;6.862;2023-04-24T02:04:07;3.38;;;2.33;;
60169;SDS011;46042;49.444;6.862;2023-04-24T02:06:36;2.22;;;2.00;;
60169;SDS011;46042;49.444;6.862;2023-04-24T02:09:03;2.78;;;2.22;;
60169;SDS011;46042;49.444;6.862;2023-04-24T02:11:30;3.20;;;2.25;;
60169;SDS011;46042;49.444;6.862;2023-04-24T02:13:56;3.28;;;2.00;;
60169;SDS011;46042;49.444;6.862;2023-04-24T02:16:23;3.28;;;2.30;;
60169;SDS011;46042;49.444;6.862;2023-04-24T02:18:51;8.57;;;2.40;;
60169;SDS011;46042;49.444;6.862;2023-04-24T02:21:17;4.55;;;2.55;;
60169;SDS011;46042;49.444;6.862;2023-04-24T02:23:44;5.90;;;2.65;;
60169;SDS011;46042;49.444;6.862;2023-04-24T02:26:11;3.85;;;2.78;;
60169;SDS011;46042;49.444;6.862;2023-04-24T02:28:37;3.15;;;2.17;;
60169;SDS011;46042;49.444;6.862;2023-04-24T02:31:04;6.38;;;2.40;;
60169;SDS011;46042;49.444;6.862;2023-04-24T02:33:34;3.40;;;2.47;;
60169;SDS011;46042;49.444;6.862;2023-04-24T02:36:03;6.32;;;3.50;;
60169;SDS011;46042;49.444;6.862;2023-04-24T02:38:30;4.32;;;2.60;;
60169;SDS011;46042;49.444;6.862;2023-04-24T02:40:58;4.93;;;2.85;;
60169;SDS011;46042;49.444;6.862;2023-04-24T02:43:24;3.55;;;2.70;;
60169;SDS011;46042;49.444;6.862;2023-04-24T02:45:51;3.58;;;2.75;;
60169;SDS011;46042;49.444;6.862;2023-04-24T02:48:18;5.60;;;3.08;;
60169;SDS011;46042;49.444;6.862;2023-04-24T02:50:47;4.63;;;3.33;;
60169;SDS011;46042;49.444;6.862;2023-04-24T02:53:14;4.78;;;3.10;;
60169;SDS011;46042;49.444;6.862;2023-04-24T02:55:40;5.50;;;3.28;;
60169;SDS011;46042;49.444;6.862;2023-04-24T02:58:07;6.55;;;3.25;;
60169;SDS011;46042;49.444;6.862;2023-04-24T03:00:34;5.85;;;2.85;;
60169;SDS011;46042;49.444;6.862;2023-04-24T03:03:01;6.47;;;2.75;;
60169;SDS011;46042;49.444;6.862;2023-04-24T03:05:27;5.40;;;2.90;;
60169;SDS011;46042;49.444;6.862;2023-04-24T03:07:54;6.22;;;3.05;;
60169;SDS011;46042;49.444;6.862;2023-04-24T03:10:21;6.65;;;3.03;;
60169;SDS011;46042;49.444;6.862;2023-04-24T03:12:49;5.70;;;2.70;;
60169;SDS011;46042;49.444;6.862;2023-04-24T03:15:16;5.75;;;3.47;;
60169;SDS011;46042;49.444;6.862;2023-04-24T03:17:43;4.65;;;3.33;;
60169;SDS011;46042;49.444;6.862;2023-04-24T03:20:09;5.10;;;3.30;;
60169;SDS011;46042;49.444;6.862;2023-04-24T03:22:37;4.75;;;3.00;;
60169;SDS011;46042;49.444;6.862;2023-04-24T03:25:05;5.88;;;3.20;;
60169;SDS011;46042;49.444;6.862;2023-04-24T03:27:34;5.70;;;3.75;;
60169;SDS011;46042;49.444;6.862;2023-04-24T03:30:04;4.15;;;3.00;;
60169;SDS011;46042;49.444;6.862;2023-04-24T03:32:35;6.65;;;3.42;;
60169;SDS011;46042;49.444;6.862;2023-04-24T03:35:01;5.20;;;3.30;;
60169;SDS011;46042;49.444;6.862;2023-04-24T03:37:28;4.05;;;3.03;;
60169;SDS011;46042;49.444;6.862;2023-04-24T03:39:55;5.40;;;3.45;;
60169;SDS011;46042;49.444;6.862;2023-04-24T03:42:23;5.35;;;3.28;;
60169;SDS011;46042;49.444;6.862;2023-04-24T03:44:51;7.00;;;3.35;;
60169;SDS011;46042;49.444;6.862;2023-04-24T03:47:18;4.85;;;3.53;;
60169;SDS011;46042;49.444;6.862;2023-04-24T03:49:46;5.60;;;3.22;;
60169;SDS011;46042;49.444;6.862;2023-04-24T03:52:13;7.38;;;3.70;;
60169;SDS011;46042;49.444;6.862;2023-04-24T03:54:40;8.27;;;3.78;;
60169;SDS011;46042;49.444;6.862;2023-04-24T03:57:08;6.85;;;3.70;;
60169;SDS011;46042;49.444;6.862;2023-04-24T03:59:35;5.70;;;3.70;;
60169;SDS011;46042;49.444;6.862;2023-04-24T04:02:02;7.70;;;3.60;;
60169;SDS011;46042;49.444;6.862;2023-04-24T04:04:30;5.13;;;3.75;;
60169;SDS011;46042;49.444;6.862;2023-04-24T04:06:57;5.72;;;4.20;;
60169;SDS011;46042;49.444;6.862;2023-04-24T04:09:28;6.03;;;3.67;;
60169;SDS011;46042;49.444;6.862;2023-04-24T04:11:55;8.38;;;4.28;;
60169;SDS011;46042;49.444;6.862;2023-04-24T04:14:22;6.07;;;3.70;;
60169;SDS011;46042;49.444;6.862;2023-04-24T04:16:49;8.32;;;3.80;;
60169;SDS011;46042;49.444;6.862;2023-04-24T04:19:19;5.10;;;3.47;;
60169;SDS011;46042;49.444;6.862;2023-04-24T04:21:46;6.97;;;4.30;;
60169;SDS011;46042;49.444;6.862;2023-04-24T04:24:18;7.32;;;4.50;;
60169;SDS011;46042;49.444;6.862;2023-04-24T04:26:47;8.32;;;4.15;;
60169;SDS011;46042;49.444;6.862;2023-04-24T04:29:17;6.53;;;4.25;;
60169;SDS011;46042;49.444;6.862;2023-04-24T04:31:44;7.82;;;4.40;;
60169;SDS011;46042;49.444;6.862;2023-04-24T04:34:12;10.90;;;4.38;;
60169;SDS011;46042;49.444;6.862;2023-04-24T04:36:40;6.72;;;4.25;;
60169;SDS011;46042;49.444;6.862;2023-04-24T04:39:09;8.15;;;4.45;;
60169;SDS011;46042;49.444;6.862;2023-04-24T04:41:36;9.07;;;3.90;;
60169;SDS011;46042;49.444;6.862;2023-04-24T04:44:03;6.60;;;3.95;;
60169;SDS011;46042;49.444;6.862;2023-04-24T04:46:31;6.57;;;4.13;;
60169;SDS011;46042;49.444;6.862;2023-04-24T04:49:03;8.73;;;4.97;;
60169;SDS011;46042;49.444;6.862;2023-04-24T04:51:30;7.43;;;4.10;;
60169;SDS011;46042;49.444;6.862;2023-04-24T04:54:05;5.28;;;3.22;;
60169;SDS011;46042;49.444;6.862;2023-04-24T05:15:29;5.45;;;3.92;;
60169;SDS011;46042;49.444;6.862;2023-04-24T05:18:06;6.47;;;4.50;;
60169;SDS011;46042;49.444;6.862;2023-04-24T05:20:35;5.63;;;4.05;;
60169;SDS011;46042;49.444;6.862;2023-04-24T05:23:06;7.63;;;4.20;;
60169;SDS011;46042;49.444;6.862;2023-04-24T05:25:32;6.45;;;4.60;;
60169;SDS011;46042;49.444;6.862;2023-04-24T05:28:03;9.32;;;4.55;;
60169;SDS011;46042;49.444;6.862;2023-04-24T05:30:33;7.78;;;4.47;;
60169;SDS011;46042;49.444;6.862;2023-04-24T05:33:01;8.55;;;4.07;;
60169;SDS011;46042;49.444;6.862;2023-04-24T05:35:27;8.02;;;4.20;;
60169;SDS011;46042;49.444;6.862;2023-04-24T05:37:54;7.38;;;4.28;;
60169;SDS011;46042;49.444;6.862;2023-04-24T05:40:21;7.20;;;4.38;;
60169;SDS011;46042;49.444;6.862;2023-04-24T05:42:47;7.25;;;4.82;;
60169;SDS011;46042;49.444;6.862;2023-04-24T05:45:18;7.43;;;4.30;;
60169;SDS011;46042;49.444;6.862;2023-04-24T05:47:46;6.20;;;4.20;;
60169;SDS011;46042;49.444;6.862;2023-04-24T05:50:13;8.20;;;4.82;;
60169;SDS011;46042;49.444;6.862;2023-04-24T05:52:40;9.38;;;4.88;;
60169;SDS011;46042;49.444;6.862;2023-04-24T05:55:06;7.82;;;3.92;;
60169;SDS011;46042;49.444;6.862;2023-04-24T05:57:33;9.80;;;5.60;;
60169;SDS011;46042;49.444;6.862;2023-04-24T06:00:00;8.60;;;4.20;;
60169;SDS011;46042;49.444;6.862;2023-04-24T06:02:27;7.43;;;4.90;;
60169;SDS011;46042;49.444;6.862;2023-04-24T06:04:55;9.27;;;4.32;;
60169;SDS011;46042;49.444;6.862;2023-04-24T06:07:22;15.45;;;4.70;;
60169;SDS011;46042;49.444;6.862;2023-04-24T06:09:48;6.60;;;4.05;;
60169;SDS011;46042;49.444;6.862;2023-04-24T06:12:15;6.07;;;4.03;;
60169;SDS011;46042;49.444;6.862;2023-04-24T06:14:41;8.82;;;4.22;;
60169;SDS011;46042;49.444;6.862;2023-04-24T06:17:09;8.98;;;4.55;;
60169;SDS011;46042;49.444;6.862;2023-04-24T06:19:36;8.27;;;4.32;;
60169;SDS011;46042;49.444;6.862;2023-04-24T06:22:04;6.38;;;4.30;;
60169;SDS011;46042;49.444;6.862;2023-04-24T06:24:33;10.00;;;4.18;;
60169;SDS011;46042;49.444;6.862;2023-04-24T06:27:00;8.02;;;4.35;;
60169;SDS011;46042;49.444;6.862;2023-04-24T06:29:27;10.48;;;4.53;;
60169;SDS011;46042;49.444;6.862;2023-04-24T06:31:54;8.40;;;4.18;;
60169;SDS011;46042;49.444;6.862;2023-04-24T06:34:20;6.75;;;3.80;;
60169;SDS011;46042;49.444;6.862;2023-04-24T06:36:47;10.25;;;4.40;;
60169;SDS011;46042;49.444;6.862;2023-04-24T06:39:14;6.55;;;3.53;;
60169;SDS011;46042;49.444;6.862;2023-04-24T06:41:40;13.65;;;4.28;;
60169;SDS011;46042;49.444;6.862;2023-04-24T06:44:07;9.32;;;4.97;;
60169;SDS011;46042;49.444;6.862;2023-04-24T06:46:34;9.63;;;4.40;;
60169;SDS011;46042;49.444;6.862;2023-04-24T06:49:00;7.13;;;4.00;;
60169;SDS011;46042;49.444;6.862;2023-04-24T06:51:27;10.75;;;3.70;;
60169;SDS011;46042;49.444;6.862;2023-04-24T06:53:54;11.35;;;4.53;;
60169;SDS011;46042;49.444;6.862;2023-04-24T06:56:22;8.00;;;3.72;;
60169;SDS011;46042;49.444;6.862;2023-04-24T06:58:50;5.22;;;3.65;;
60169;SDS011;46042;49.444;6.862;2023-04-24T07:01:17;5.80;;;3.83;;
60169;SDS011;46042;49.444;6.862;2023-04-24T07:03:45;8.68;;;4.72;;
60169;SDS011;46042;49.444;6.862;2023-04-24T07:06:12;6.05;;;3.75;;
60169;SDS011;46042;49.444;6.862;2023-04-24T07:08:39;8.40;;;4.00;;
60169;SDS011;46042;49.444;6.862;2023-04-24T07:11:08;8.27;;;3.70;;
60169;SDS011;46042;49.444;6.862;2023-04-24T07:13:34;8.10;;;3.47;;
60169;SDS011;46042;49.444;6.862;2023-04-24T07:16:01;4.05;;;2.88;;
60169;SDS011;46042;49.444;6.862;2023-04-24T07:18:28;7.20;;;3.35;;
60169;SDS011;46042;49.444;6.862;2023-04-24T07:20:55;9.88;;;3.47;;
60169;SDS011;46042;49.444;6.862;2023-04-24T07:23:23;8.38;;;3.97;;
60169;SDS011;46042;49.444;6.862;2023-04-24T07:25:51;7.88;;;4.32;;
60169;SDS011;46042;49.444;6.862;2023-04-24T07:28:19;8.75;;;4.43;;
60169;SDS011;46042;49.444;6.862;2023-04-24T07:30:47;8.82;;;3.88;;
60169;SDS011;46042;49.444;6.862;2023-04-24T07:33:13;6.32;;;3.50;;
60169;SDS011;46042;49.444;6.862;2023-04-24T07:35:40;6.40;;;4.40;;
60169;SDS011;46042;49.444;6.862;2023-04-24T07:38:06;5.20;;;3.58;;
60169;SDS011;46042;49.444;6.862;2023-04-24T07:40:33;6.18;;;3.80;;
60169;SDS011;46042;49.444;6.862;2023-04-24T07:43:00;5.72;;;3.72;;
60169;SDS011;46042;49.444;6.862;2023-04-24T07:45:26;11.93;;;4.13;;
60169;SDS011;46042;49.444;6.862;2023-04-24T07:47:54;12.13;;;4.47;;
60169;SDS011;46042;49.444;6.862;2023-04-24T07:50:21;9.15;;;4.25;;
60169;SDS011;46042;49.444;6.862;2023-04-24T07:52:48;8.73;;;4.30;;
60169;SDS011;46042;49.444;6.862;2023-04-24T07:55:14;9.23;;;4.07;;
60169;SDS011;46042;49.444;6.862;2023-04-24T07:57:45;6.72;;;4.20;;
60169;SDS011;46042;49.444;6.862;2023-04-24T08:00:12;7.68;;;4.15;;
60169;SDS011;46042;49.444;6.862;2023-04-24T08:02:39;6.57;;;4.20;;
60169;SDS011;46042;49.444;6.862;2023-04-24T08:05:08;7.50;;;5.03;;
60169;SDS011;46042;49.444;6.862;2023-04-24T08:07:35;7.15;;;4.20;;
60169;SDS011;46042;49.444;6.862;2023-04-24T08:10:02;8.80;;;4.45;;
60169;SDS011;46042;49.444;6.862;2023-04-24T08:12:29;9.68;;;4.75;;
60169;SDS011;46042;49.444;6.862;2023-04-24T08:14:55;9.15;;;4.18;;
60169;SDS011;46042;49.444;6.862;2023-04-24T08:17:23;8.02;;;5.40;;
60169;SDS011;46042;49.444;6.862;2023-04-24T08:19:52;5.28;;;3.72;;
60169;SDS011;46042;49.444;6.862;2023-04-24T08:22:28;7.15;;;4.03;;
60169;SDS011;46042;49.444;6.862;2023-04-24T08:24:55;9.90;;;4.15;;
60169;SDS011;46042;49.444;6.862;2023-04-24T08:27:23;7.40;;;4.28;;
60169;SDS011;46042;49.444;6.862;2023-04-24T08:29:50;8.65;;;4.45;;
60169;SDS011;46042;49.444;6.862;2023-04-24T08:32:19;11.63;;;3.72;;
60169;SDS011;46042;49.444;6.862;2023-04-24T08:34:48;5.85;;;3.53;;
60169;SDS011;46042;49.444;6.862;2023-04-24T08:37:15;8.60;;;3.92;;
60169;SDS011;46042;49.444;6.862;2023-04-24T08:39:42;7.30;;;3.85;;
60169;SDS011;46042;49.444;6.862;2023-04-24T08:42:11;6.07;;;4.63;;
60169;SDS011;46042;49.444;6.862;2023-04-24T08:44:39;7.88;;;5.03;;
60169;SDS011;46042;49.444;6.862;2023-04-24T08:47:07;9.40;;;4.45;;
60169;SDS011;46042;49.444;6.862;2023-04-24T08:49:35;5.95;;;4.32;;
60169;SDS011;46042;49.444;6.862;2023-04-24T08:52:02;7.32;;;4.60;;
60169;SDS011;46042;49.444;6.862;2023-04-24T08:54:34;8.30;;;5.15;;
60169;SDS011;46042;49.444;6.862;2023-04-24T08:57:01;8.20;;;4.13;;
60169;SDS011;46042;49.444;6.862;2023-04-24T08:59:32;7.50;;;4.50;;
60169;SDS011;46042;49.444;6.862;2023-04-24T09:02:01;7.82;;;5.35;;
60169;SDS011;46042;49.444;6.862;2023-04-24T09:04:30;11.73;;;5.03;;
60169;SDS011;46042;49.444;6.862;2023-04-24T09:07:01;8.80;;;5.50;;
60169;SDS011;46042;49.444;6.862;2023-04-24T09:09:30;12.73;;;5.22;;
60169;SDS011;46042;49.444;6.862;2023-04-24T09:12:00;7.53;;;5.13;;
60169;SDS011;46042;49.444;6.862;2023-04-24T09:14:27;11.23;;;4.88;;
60169;SDS011;46042;49.444;6.862;2023-04-24T09:16:54;14.15;;;4.78;;
60169;SDS011;46042;49.444;6.862;2023-04-24T09:19:21;6.93;;;4.85;;
60169;SDS011;46042;49.444;6.862;2023-04-24T09:21:48;10.02;;;5.47;;
60169;SDS011;46042;49.444;6.862;2023-04-24T09:24:19;9.13;;;4.80;;
60169;SDS011;46042;49.444;6.862;2023-04-24T09:26:49;7.32;;;5.03;;
60169;SDS011;46042;49.444;6.862;2023-04-24T09:29:27;11.95;;;5.40;;
60169;SDS011;46042;49.444;6.862;2023-04-24T09:31:54;9.57;;;5.85;;
60169;SDS011;46042;49.444;6.862;2023-04-24T09:34:25;7.95;;;4.82;;
60169;SDS011;46042;49.444;6.862;2023-04-24T09:36:53;10.10;;;4.82;;
60169;SDS011;46042;49.444;6.862;2023-04-24T09:39:20;9.63;;;5.25;;
60169;SDS011;46042;49.444;6.862;2023-04-24T09:41:52;12.20;;;5.40;;
60169;SDS011;46042;49.444;6.862;2023-04-24T09:44:20;8.70;;;5.28;;
60169;SDS011;46042;49.444;6.862;2023-04-24T09:46:53;9.45;;;5.60;;
60169;SDS011;46042;49.444;6.862;2023-04-24T09:49:25;10.63;;;4.78;;
60169;SDS011;46042;49.444;6.862;2023-04-24T09:54:30;8.00;;;4.90;;
60169;SDS011;46042;49.444;6.862;2023-04-24T09:56:57;9.35;;;5.15;;
60169;SDS011;46042;49.444;6.862;2023-04-24T09:59:26;10.73;;;5.18;;
60169;SDS011;46042;49.444;6.862;2023-04-24T10:01:55;7.80;;;4.60;;
60169;SDS011;46042;49.444;6.862;2023-04-24T10:04:23;10.05;;;4.63;;
60169;SDS011;46042;49.444;6.862;2023-04-24T10:06:52;12.85;;;5.03;;
60169;SDS011;46042;49.444;6.862;2023-04-24T10:09:21;8.10;;;4.47;;
60169;SDS011;46042;49.444;6.862;2023-04-24T10:11:52;8.38;;;4.55;;
60169;SDS011;46042;49.444;6.862;2023-04-24T10:14:20;10.38;;;4.93;;
60169;SDS011;46042;49.444;6.862;2023-04-24T10:16:49;9.02;;;4.50;;
60169;SDS011;46042;49.444;6.862;2023-04-24T10:19:18;8.60;;;4.28;;
60169;SDS011;46042;49.444;6.862;2023-04-24T10:21:46;5.35;;;3.67;;
60169;SDS011;46042;49.444;6.862;2023-04-24T10:24:14;9.25;;;4.68;;
60169;SDS011;46042;49.444;6.862;2023-04-24T10:26:43;11.02;;;4.63;;
60169;SDS011;46042;49.444;6.862;2023-04-24T10:29:14;9.18;;;4.82;;
60169;SDS011;46042;49.444;6.862;2023-04-24T10:31:44;8.63;;;4.13;;
60169;SDS011;46042;49.444;6.862;2023-04-24T10:34:14;7.82;;;4.50;;
60169;SDS011;46042;49.444;6.862;2023-04-24T10:36:43;6.32;;;4.20;;
60169;SDS011;46042;49.444;6.862;2023-04-24T10:39:14;10.57;;;4.53;;
60169;SDS011;46042;49.444;6.862;2023-04-24T10:41:42;10.18;;;4.47;;
60169;SDS011;46042;49.444;6.862;2023-04-24T10:44:15;6.43;;;4.07;;
60169;SDS011;46042;49.444;6.862;2023-04-24T10:46:43;7.53;;;4.47;;
60169;SDS011;46042;49.444;6.862;2023-04-24T10:49:12;8.57;;;4.28;;
60169;SDS011;46042;49.444;6.862;2023-04-24T10:51:46;10.02;;;4.65;;
60169;SDS011;46042;49.444;6.862;2023-04-24T10:54:26;10.55;;;4.25;;
60169;SDS011;46042;49.444;6.862;2023-04-24T10:59:49;6.97;;;3.78;;
60169;SDS011;46042;49.444;6.862;2023-04-24T11:02:18;6.53;;;4.07;;
60169;SDS011;46042;49.444;6.862;2023-04-24T11:05:04;8.65;;;3.97;;
60169;SDS011;46042;49.444;6.862;2023-04-24T11:10:47;5.85;;;3.92;;
60169;SDS011;46042;49.444;6.862;2023-04-24T11:13:22;8.75;;;4.93;;
60169;SDS011;46042;49.444;6.862;2023-04-24T11:18:38;8.75;;;4.55;;
60169;SDS011;46042;49.444;6.862;2023-04-24T11:21:10;8.18;;;4.10;;
60169;SDS011;46042;49.444;6.862;2023-04-24T11:23:38;6.15;;;3.92;;
60169;SDS011;46042;49.444;6.862;2023-04-24T11:26:10;10.85;;;4.20;;
60169;SDS011;46042;49.444;6.862;2023-04-24T11:28:46;9.10;;;4.85;;
60169;SDS011;46042;49.444;6.862;2023-04-24T11:34:07;7.15;;;4.32;;
60169;SDS011;46042;49.444;6.862;2023-04-24T11:36:36;9.85;;;4.38;;
60169;SDS011;46042;49.444;6.862;2023-04-24T11:39:03;6.45;;;3.92;;
60169;SDS011;46042;49.444;6.862;2023-04-24T11:41:32;7.90;;;4.18;;
60169;SDS011;46042;49.444;6.862;2023-04-24T11:44:00;7.95;;;4.38;;
60169;SDS011;46042;49.444;6.862;2023-04-24T11:46:28;7.18;;;4.72;;
60169;SDS011;46042;49.444;6.862;2023-04-24T11:48:56;7.55;;;4.38;;
60169;SDS011;46042;49.444;6.862;2023-04-24T11:51:24;7.00;;;4.60;;
60169;SDS011;46042;49.444;6.862;2023-04-24T11:54:07;8.68;;;4.80;;
60169;SDS011;46042;49.444;6.862;2023-04-24T11:56:34;8.32;;;4.72;;
60169;SDS011;46042;49.444;6.862;2023-04-24T11:59:03;6.40;;;4.63;;
60169;SDS011;46042;49.444;6.862;2023-04-24T12:01:41;19.70;;;5.38;;
60169;SDS011;46042;49.444;6.862;2023-04-24T12:04:09;8.73;;;4.55;;
60169;SDS011;46042;49.444;6.862;2023-04-24T12:06:36;8.48;;;4.85;;
60169;SDS011;46042;49.444;6.862;2023-04-24T12:09:04;6.60;;;4.80;;
60169;SDS011;46042;49.444;6.862;2023-04-24T12:11:52;7.03;;;4.78;;
60169;SDS011;46042;49.444;6.862;2023-04-24T12:14:23;9.52;;;4.85;;
60169;SDS011;46042;49.444;6.862;2023-04-24T12:16:50;9.60;;;4.68;;
60169;SDS011;46042;49.444;6.862;2023-04-24T12:19:20;8.48;;;3.58;;
60169;SDS011;46042;49.444;6.862;2023-04-24T12:21:59;10.68;;;3.72;;
60169;SDS011;46042;49.444;6.862;2023-04-24T12:24:33;5.40;;;3.55;;
60169;SDS011;46042;49.444;6.862;2023-04-24T12:27:01;6.03;;;3.92;;
60169;SDS011;46042;49.444;6.862;2023-04-24T12:29:28;5.45;;;3.42;;
60169;SDS011;46042;49.444;6.862;2023-04-24T12:31:55;5.85;;;3.50;;
60169;SDS011;46042;49.444;6.862;2023-04-24T12:34:22;4.90;;;3.15;;
60169;SDS011;46042;49.444;6.862;2023-04-24T12:36:51;4.43;;;3.20;;
60169;SDS011;46042;49.444;6.862;2023-04-24T12:39:19;5.82;;;3.47;;
60169;SDS011;46042;49.444;6.862;2023-04-24T12:41:55;7.10;;;3.05;;
60169;SDS011;46042;49.444;6.862;2023-04-24T12:44:33;5.50;;;2.67;;
60169;SDS011;46042;49.444;6.862;2023-04-24T12:47:01;6.57;;;3.45;;
60169;SDS011;46042;49.444;6.862;2023-04-24T12:49:32;5.35;;;3.30;;
60169;SDS011;46042;49.444;6.862;2023-04-24T12:51:59;6.25;;;3.42;;
60169;SDS011;46042;49.444;6.862;2023-04-24T12:54:25;11.25;;;3.53;;
60169;SDS011;46042;49.444;6.862;2023-04-24T12:56:52;5.57;;;3.90;;
60169;SDS011;46042;49.444;6.862;2023-04-24T12:59:20;7.28;;;3.75;;
60169;SDS011;46042;49.444;6.862;2023-04-24T13:01:47;6.15;;;4.10;;
60169;SDS011;46042;49.444;6.862;2023-04-24T13:04:15;8.90;;;3.90;;
60169;SDS011;46042;49.444;6.862;2023-04-24T13:06:43;6.43;;;4.07;;
60169;SDS011;46042;49.444;6.862;2023-04-24T13:09:10;6.70;;;4.68;;
60169;SDS011;46042;49.444;6.862;2023-04-24T13:11:36;5.68;;;3.67;;
60169;SDS011;46042;49.444;6.862;2023-04-24T13:14:03;10.73;;;4.38;;
60169;SDS011;46042;49.444;6.862;2023-04-24T13:16:30;7.32;;;4.25;;
60169;SDS011;46042;49.444;6.862;2023-04-24T13:18:56;8.77;;;4.00;;
60169;SDS011;46042;49.444;6.862;2023-04-24T13:21:23;7.32;;;3.95;;
60169;SDS011;46042;49.444;6.862;2023-04-24T13:23:50;6.13;;;4.22;;
60169;SDS011;46042;49.444;6.862;2023-04-24T13:26:18;6.95;;;4.32;;
60169;SDS011;46042;49.444;6.862;2023-04-24T13:28:45;5.97;;;3.97;;
60169;SDS011;46042;49.444;6.862;2023-04-24T13:31:12;9.57;;;4.20;;
60169;SDS011;46042;49.444;6.862;2023-04-24T13:33:40;7.55;;;4.20;;
60169;SDS011;46042;49.444;6.862;2023-04-24T13:36:07;9.48;;;4.85;;
60169;SDS011;46042;49.444;6.862;2023-04-24T13:38:34;6.68;;;3.92;;
60169;SDS011;46042;49.444;6.862;2023-04-24T13:41:01;8.25;;;4.03;;
60169;SDS011;46042;49.444;6.862;2023-04-24T13:43:27;6.13;;;3.70;;
60169;SDS011;46042;49.444;6.862;2023-04-24T13:45:54;4.88;;;3.20;;
60169;SDS011;46042;49.444;6.862;2023-04-24T13:48:21;7.25;;;2.63;;
60169;SDS011;46042;49.444;6.862;2023-04-24T13:50:48;4.30;;;2.92;;
60169;SDS011;46042;49.444;6.862;2023-04-24T13:53:16;5.97;;;2.95;;
60169;SDS011;46042;49.444;6.862;2023-04-24T13:55:44;4.18;;;2.88;;
60169;SDS011;46042;49.444;6.862;2023-04-24T13:58:12;7.75;;;3.00;;
60169;SDS011;46042;49.444;6.862;2023-04-24T14:00:40;4.47;;;2.83;;
60169;SDS011;46042;49.444;6.862;2023-04-24T14:03:08;4.65;;;2.75;;
60169;SDS011;46042;49.444;6.862;2023-04-24T14:05:35;2.70;;;2.05;;
60169;SDS011;46042;49.444;6.862;2023-04-24T14:08:04;3.85;;;2.85;;
60169;SDS011;46042;49.444;6.862;2023-04-24T14:10:31;5.32;;;2.80;;
60169;SDS011;46042;49.444;6.862;2023-04-24T14:12:58;3.97;;;2.60;;
60169;SDS011;46042;49.444;6.862;2023-04-24T14:15:25;3.25;;;2.33;;
60169;SDS011;46042;49.444;6.862;2023-04-24T14:17:52;3.15;;;2.25;;
60169;SDS011;46042;49.444;6.862;2023-04-24T14:20:19;3.28;;;2.33;;
60169;SDS011;46042;49.444;6.862;2023-04-24T14:22:45;3.83;;;2.65;;
60169;SDS011;46042;49.444;6.862;2023-04-24T14:25:12;2.60;;;2.13;;
60169;SDS011;46042;49.444;6.862;2023-04-24T14:27:39;11.63;;;2.65;;
60169;SDS011;46042;49.444;6.862;2023-04-24T14:30:06;3.65;;;2.50;;
60169;SDS011;46042;49.444;6.862;2023-04-24T14:32:33;4.80;;;3.00;;
60169;SDS011;46042;49.444;6.862;2023-04-24T14:35:01;3.75;;;2.63;;
60169;SDS011;46042;49.444;6.862;2023-04-24T14:37:29;3.78;;;2.50;;
60169;SDS011;46042;49.444;6.862;2023-04-24T14:40:00;3.88;;;2.45;;
60169;SDS011;46042;49.444;6.862;2023-04-24T14:42:32;1.70;;;1.60;;
60169;SDS011;46042;49.444;6.862;2023-04-24T14:44:59;1.63;;;1.50;;
60169;SDS011;46042;49.444;6.862;2023-04-24T14:47:27;3.28;;;1.75;;
60169;SDS011;46042;49.444;6.862;2023-04-24T14:49:54;3.15;;;1.90;;
60169;SDS011;46042;49.444;6.862;2023-04-24T14:52:21;4.00;;;2.40;;
60169;SDS011;46042;49.444;6.862;2023-04-24T14:54:48;4.72;;;3.03;;
60169;SDS011;46042;49.444;6.862;2023-04-24T14:57:20;5.38;;;2.95;;
60169;SDS011;46042;49.444;6.862;2023-04-24T14:59:47;3.05;;;2.28;;
60169;SDS011;46042;49.444;6.862;2023-04-24T15:02:16;8.20;;;2.67;;
60169;SDS011;46042;49.444;6.862;2023-04-24T15:04:48;4.07;;;2.30;;
60169;SDS011;46042;49.444;6.862;2023-04-24T15:07:21;3.55;;;2.35;;
60169;SDS011;46042;49.444;6.862;2023-04-24T15:09:49;5.90;;;2.78;;
60169;SDS011;46042;49.444;6.862;2023-04-24T15:12:16;4.20;;;2.50;;
60169;SDS011;46042;49.444;6.862;2023-04-24T15:14:43;4.68;;;2.75;;
60169;SDS011;46042;49.444;6.862;2023-04-24T15:17:10;4.32;;;2.50;;
60169;SDS011;46042;49.444;6.862;2023-04-24T15:19:37;4.07;;;2.38;;
60169;SDS011;46042;49.444;6.862;2023-04-24T15:22:04;5.78;;;2.88;;
60169;SDS011;46042;49.444;6.862;2023-04-24T15:24:30;3.42;;;2.50;;